createdAt,value
2016-09-05T00:00:55.020Z,0
2016-09-05T00:01:55.040Z,0
2016-09-05T00:02:55.049Z,0
2016-09-05T00:03:55.080Z,0
2016-09-05T00:04:55.104Z,0
2016-09-05T00:05:55.118Z,0
2016-09-05T00:06:55.139Z,0
2016-09-05T00:07:55.155Z,0
2016-09-05T00:08:55.186Z,0
2016-09-05T00:09:55.190Z,0
2016-09-05T00:10:55.235Z,0
2016-09-05T00:11:55.246Z,0
2016-09-05T00:12:55.268Z,0
2016-09-05T00:13:55.284Z,0
2016-09-05T00:14:55.309Z,0
2016-09-05T00:15:55.320Z,0
2016-09-05T00:16:55.357Z,0
2016-09-05T00:17:55.360Z,0
2016-09-05T00:18:55.382Z,0
2016-09-05T00:19:55.414Z,0
2016-09-05T00:20:55.422Z,0
2016-09-05T00:21:55.448Z,0
2016-09-05T00:22:55.482Z,0
2016-09-05T00:23:55.493Z,0
2016-09-05T00:24:55.505Z,0
2016-09-05T00:25:55.527Z,0
2016-09-05T00:26:55.569Z,0
2016-09-05T00:27:55.573Z,0
2016-09-05T00:28:55.595Z,0
2016-09-05T00:29:55.613Z,0
2016-09-05T00:30:55.632Z,0
2016-09-05T00:31:55.669Z,0
2016-09-05T00:32:55.681Z,0
2016-09-05T00:33:55.707Z,0
2016-09-05T00:34:55.719Z,0
2016-09-05T00:35:55.736Z,0
2016-09-05T00:36:55.753Z,0
2016-09-05T00:37:55.787Z,0
2016-09-05T00:38:55.796Z,0
2016-09-05T00:39:55.824Z,0
2016-09-05T00:40:55.833Z,0
2016-09-05T00:41:55.869Z,0
2016-09-05T00:42:55.881Z,0
2016-09-05T00:43:55.900Z,0
2016-09-05T00:44:55.920Z,0
2016-09-05T00:45:55.951Z,0
2016-09-05T00:46:55.975Z,0
2016-09-05T00:47:56.000Z,0
2016-09-05T00:48:56.015Z,0
2016-09-05T00:49:56.026Z,0
2016-09-05T00:50:56.045Z,0
2016-09-05T00:51:56.079Z,0
2016-09-05T00:52:56.086Z,0
2016-09-05T00:53:56.111Z,0
2016-09-05T00:54:56.121Z,0
2016-09-05T00:55:56.143Z,0
2016-09-05T00:56:56.185Z,0
2016-09-05T00:57:56.187Z,0
2016-09-05T00:58:56.209Z,0
2016-09-05T00:59:56.239Z,0
2016-09-05T01:00:56.262Z,0
2016-09-05T01:01:56.281Z,0
2016-09-05T01:02:56.301Z,0
2016-09-05T01:03:56.332Z,0
2016-09-05T01:04:56.343Z,0
2016-09-05T01:05:56.349Z,0
2016-09-05T01:06:56.371Z,0
2016-09-05T01:07:56.396Z,0
2016-09-05T01:08:56.417Z,0
2016-09-05T01:09:56.431Z,0
2016-09-05T01:10:56.467Z,0
2016-09-05T01:11:56.472Z,0
2016-09-05T01:12:56.505Z,0
2016-09-05T01:13:56.515Z,0
2016-09-05T01:14:56.553Z,0
2016-09-05T01:15:56.554Z,0
2016-09-05T01:16:56.574Z,0
2016-09-05T01:17:56.607Z,0
2016-09-05T01:18:56.628Z,0
2016-09-05T01:19:56.643Z,0
2016-09-05T01:20:56.672Z,0
2016-09-05T01:21:56.682Z,0
2016-09-05T01:22:56.739Z,0
2016-09-05T01:23:56.774Z,0
2016-09-05T01:24:56.798Z,0
2016-09-05T01:25:56.809Z,0
2016-09-05T01:26:56.811Z,0
2016-09-05T01:27:56.851Z,0
2016-09-05T01:28:56.890Z,0
2016-09-05T01:29:56.879Z,0
2016-09-05T01:30:56.876Z,0
2016-09-05T01:31:56.890Z,0
2016-09-05T01:32:56.900Z,0
2016-09-05T01:33:56.940Z,0
2016-09-05T01:34:56.966Z,0
2016-09-05T01:35:56.965Z,0
2016-09-05T01:36:56.986Z,0
2016-09-05T01:37:57.012Z,0
2016-09-05T01:38:57.031Z,0
2016-09-05T01:39:57.057Z,0
2016-09-05T01:40:57.079Z,0
2016-09-05T01:41:57.090Z,0
2016-09-05T01:42:57.106Z,0
2016-09-05T01:43:57.129Z,0
2016-09-05T01:44:57.149Z,0
2016-09-05T01:45:57.168Z,0
2016-09-05T01:46:57.198Z,0
2016-09-05T01:47:57.215Z,0
2016-09-05T01:48:57.232Z,0
2016-09-05T01:49:57.261Z,0
2016-09-05T01:50:57.280Z,0
2016-09-05T01:51:57.300Z,0
2016-09-05T01:52:57.310Z,0
2016-09-05T01:53:57.347Z,0
2016-09-05T01:54:57.361Z,0
2016-09-05T01:55:57.375Z,0
2016-09-05T01:56:57.398Z,0
2016-09-05T01:57:57.444Z,0
2016-09-05T01:58:57.436Z,0
2016-09-05T01:59:57.471Z,0
2016-09-05T02:00:57.489Z,0
2016-09-05T02:01:57.500Z,0
2016-09-05T02:02:57.536Z,0
2016-09-05T02:03:57.529Z,0
2016-09-05T02:04:57.557Z,0
2016-09-05T02:05:57.592Z,0
2016-09-05T02:06:57.618Z,0
2016-09-05T02:07:57.622Z,0
2016-09-05T02:08:57.638Z,0
2016-09-05T02:09:57.675Z,0
2016-09-05T02:10:57.684Z,0
2016-09-05T02:11:57.709Z,0
2016-09-05T02:12:57.734Z,0
2016-09-05T02:13:57.732Z,0
2016-09-05T02:14:57.757Z,0
2016-09-05T02:15:57.790Z,0
2016-09-05T02:16:57.809Z,0
2016-09-05T02:17:57.837Z,0
2016-09-05T02:18:57.844Z,0
2016-09-05T02:19:57.858Z,0
2016-09-05T02:20:57.888Z,0
2016-09-05T02:21:57.913Z,0
2016-09-05T02:22:57.920Z,0
2016-09-05T02:23:57.955Z,0
2016-09-05T02:24:57.959Z,0
2016-09-05T02:25:58.005Z,0
2016-09-05T02:26:58.024Z,0
2016-09-05T02:27:58.023Z,0
2016-09-05T02:28:58.052Z,0
2016-09-05T02:29:58.066Z,0
2016-09-05T02:30:58.088Z,0
2016-09-05T02:31:58.110Z,0
2016-09-05T02:32:58.134Z,0
2016-09-05T02:33:58.149Z,0
2016-09-05T02:34:58.168Z,0
2016-09-05T02:35:58.194Z,0
2016-09-05T02:36:58.210Z,0
2016-09-05T02:37:58.224Z,0
2016-09-05T02:38:58.257Z,0
2016-09-05T02:39:58.336Z,0
2016-09-05T02:40:58.332Z,0
2016-09-05T02:41:58.333Z,0
2016-09-05T02:42:58.369Z,0
2016-09-05T02:43:58.403Z,0
2016-09-05T02:44:58.428Z,0
2016-09-05T02:45:58.432Z,0
2016-09-05T02:46:58.433Z,0
2016-09-05T02:47:58.440Z,0
2016-09-05T02:48:58.448Z,0
2016-09-05T02:49:58.479Z,0
2016-09-05T02:50:58.510Z,0
2016-09-05T02:51:58.510Z,0
2016-09-05T02:52:58.535Z,0
2016-09-05T02:53:58.576Z,0
2016-09-05T02:54:58.592Z,0
2016-09-05T02:55:58.596Z,0
2016-09-05T02:56:58.613Z,0
2016-09-05T02:57:58.631Z,0
2016-09-05T02:58:58.657Z,0
2016-09-05T02:59:58.691Z,0
2016-09-05T03:00:58.692Z,0
2016-09-05T03:01:58.738Z,0
2016-09-05T03:02:58.728Z,0
2016-09-05T03:03:58.762Z,0
2016-09-05T03:04:58.790Z,0
2016-09-05T03:05:58.803Z,0
2016-09-05T03:06:58.821Z,0
2016-09-05T03:07:58.841Z,0
2016-09-05T03:08:58.861Z,0
2016-09-05T03:09:58.907Z,0
2016-09-05T03:10:58.903Z,0
2016-09-05T03:11:58.932Z,0
2016-09-05T03:12:58.938Z,0
2016-09-05T03:13:58.966Z,0
2016-09-05T03:14:58.978Z,0
2016-09-05T03:15:59.009Z,0
2016-09-05T03:16:59.050Z,0
2016-09-05T03:17:59.044Z,0
2016-09-05T03:18:59.076Z,0
2016-09-05T03:19:59.093Z,0
2016-09-05T03:20:59.102Z,0
2016-09-05T03:21:59.117Z,0
2016-09-05T03:22:59.146Z,0
2016-09-05T03:23:59.171Z,0
2016-09-05T03:24:59.194Z,0
2016-09-05T03:25:59.208Z,0
2016-09-05T03:26:59.229Z,0
2016-09-05T03:27:59.254Z,0
2016-09-05T03:28:59.265Z,0
2016-09-05T03:29:59.293Z,0
2016-09-05T03:30:59.307Z,0
2016-09-05T03:31:59.338Z,0
2016-09-05T03:32:59.364Z,0
2016-09-05T03:33:59.380Z,0
2016-09-05T03:34:59.394Z,0
2016-09-05T03:35:59.425Z,0
2016-09-05T03:36:59.433Z,0
2016-09-05T03:37:59.454Z,0
2016-09-05T03:38:59.487Z,0
2016-09-05T03:39:59.498Z,0
2016-09-05T03:40:59.514Z,0
2016-09-05T03:41:59.541Z,0
2016-09-05T03:42:59.571Z,0
2016-09-05T03:43:59.565Z,0
2016-09-05T03:44:59.601Z,0
2016-09-05T03:45:59.623Z,0
2016-09-05T03:46:59.623Z,0
2016-09-05T03:47:59.660Z,0
2016-09-05T03:48:59.676Z,0
2016-09-05T03:49:59.717Z,0
2016-09-05T03:50:59.712Z,0
2016-09-05T03:51:59.745Z,0
2016-09-05T03:52:59.754Z,0
2016-09-05T03:53:59.775Z,0
2016-09-05T03:54:59.796Z,0
2016-09-05T03:55:59.820Z,0
2016-09-05T03:56:59.841Z,0
2016-09-05T03:57:59.904Z,0
2016-09-05T03:58:59.908Z,0
2016-09-05T03:59:59.910Z,0
2016-09-05T04:01:14.759Z,0
2016-09-05T04:01:59.944Z,0
2016-09-05T04:02:59.950Z,0
2016-09-05T04:03:59.974Z,0
2016-09-05T04:04:59.992Z,0
2016-09-05T04:06:00.024Z,0
2016-09-05T04:07:00.043Z,0
2016-09-05T04:08:00.060Z,0
2016-09-05T04:09:00.087Z,0
2016-09-05T04:10:00.097Z,0
2016-09-05T04:11:00.119Z,0
2016-09-05T04:12:00.147Z,0
2016-09-05T04:13:00.152Z,0
2016-09-05T04:14:00.177Z,0
2016-09-05T04:15:00.198Z,0
2016-09-05T04:16:00.219Z,0
2016-09-05T04:17:00.231Z,0
2016-09-05T04:18:00.277Z,0
2016-09-05T04:19:00.277Z,0
2016-09-05T04:20:00.301Z,0
2016-09-05T04:21:00.342Z,0
2016-09-05T04:22:00.336Z,0
2016-09-05T04:23:00.372Z,0
2016-09-05T04:24:00.381Z,0
2016-09-05T04:25:00.452Z,0
2016-09-05T04:26:00.422Z,0
2016-09-05T04:27:00.493Z,0
2016-09-05T04:28:00.467Z,0
2016-09-05T04:29:00.548Z,0
2016-09-05T04:30:00.511Z,0
2016-09-05T04:31:00.548Z,0
2016-09-05T04:32:00.552Z,0
2016-09-05T04:33:00.574Z,0
2016-09-05T04:34:00.594Z,0
2016-09-05T04:35:00.654Z,0
2016-09-05T04:36:00.614Z,0
2016-09-05T04:37:00.674Z,0
2016-09-05T04:38:00.661Z,0
2016-09-05T04:39:00.685Z,0
2016-09-05T04:40:00.706Z,0
2016-09-05T04:41:00.727Z,0
2016-09-05T04:42:00.739Z,0
2016-09-05T04:43:00.778Z,0
2016-09-05T04:44:00.785Z,0
2016-09-05T04:45:00.807Z,0
2016-09-05T04:46:00.830Z,0
2016-09-05T04:47:00.852Z,0
2016-09-05T04:48:00.866Z,0
2016-09-05T04:49:00.898Z,0
2016-09-05T04:50:00.899Z,0
2016-09-05T04:51:00.933Z,0
2016-09-05T04:52:01.683Z,0
2016-09-05T04:53:00.967Z,0
2016-09-05T04:54:00.997Z,0
2016-09-05T04:55:01.017Z,0
2016-09-05T04:56:01.029Z,0
2016-09-05T04:57:01.050Z,0
2016-09-05T04:58:01.070Z,0
2016-09-05T04:59:01.088Z,0
2016-09-05T05:00:01.107Z,0
2016-09-05T05:01:01.137Z,0
2016-09-05T05:02:01.143Z,0
2016-09-05T05:03:01.181Z,0
2016-09-05T05:04:01.180Z,0
2016-09-05T05:05:01.210Z,0
2016-09-05T05:06:01.232Z,0
2016-09-05T05:07:01.251Z,0
2016-09-05T05:08:01.269Z,0
2016-09-05T05:09:01.295Z,0
2016-09-05T05:10:01.313Z,0
2016-09-05T05:11:01.332Z,0
2016-09-05T05:12:01.347Z,0
2016-09-05T05:13:01.381Z,0
2016-09-05T05:14:01.401Z,0
2016-09-05T05:15:01.420Z,0
2016-09-05T05:16:01.427Z,0
2016-09-05T05:17:01.448Z,0
2016-09-05T05:18:01.474Z,0
2016-09-05T05:19:01.491Z,0
2016-09-05T05:20:01.520Z,0
2016-09-05T05:21:01.524Z,0
2016-09-05T05:22:01.547Z,0
2016-09-05T05:23:01.571Z,0
2016-09-05T05:24:01.599Z,0
2016-09-05T05:25:01.616Z,0
2016-09-05T05:26:01.623Z,5
2016-09-05T05:27:01.658Z,5
2016-09-05T05:28:01.669Z,5
2016-09-05T05:29:01.692Z,5
2016-09-05T05:30:01.719Z,5
2016-09-05T05:31:01.736Z,5
2016-09-05T05:32:02.462Z,5
2016-09-05T05:33:01.770Z,5
2016-09-05T05:34:01.795Z,5
2016-09-05T05:35:01.807Z,5
2016-09-05T05:36:01.832Z,5
2016-09-05T05:37:01.856Z,5
2016-09-05T05:38:01.869Z,5
2016-09-05T05:39:01.900Z,5
2016-09-05T05:40:01.919Z,5
2016-09-05T05:41:02.135Z,5
2016-09-05T05:42:01.953Z,5
2016-09-05T05:43:01.984Z,5
2016-09-05T05:44:01.995Z,5
2016-09-05T05:45:02.015Z,5
2016-09-05T05:46:02.037Z,5
2016-09-05T05:47:02.066Z,5
2016-09-05T05:48:02.078Z,5
2016-09-05T05:49:02.085Z,5
2016-09-05T05:50:02.114Z,5
2016-09-05T05:51:02.153Z,5
2016-09-05T05:52:02.142Z,10
2016-09-05T05:53:02.177Z,10
2016-09-05T05:54:02.188Z,10
2016-09-05T05:55:02.220Z,10
2016-09-05T05:56:02.233Z,10
2016-09-05T05:57:02.275Z,10
2016-09-05T05:58:02.277Z,10
2016-09-05T05:59:02.290Z,10
2016-09-05T06:00:02.321Z,15
2016-09-05T06:01:02.331Z,15
2016-09-05T06:02:02.356Z,10
2016-09-05T06:03:02.377Z,10
2016-09-05T06:04:02.392Z,10
2016-09-05T06:05:02.420Z,10
2016-09-05T06:06:02.437Z,10
2016-09-05T06:07:02.461Z,10
2016-09-05T06:08:02.481Z,10
2016-09-05T06:09:02.503Z,10
2016-09-05T06:10:02.527Z,10
2016-09-05T06:11:02.540Z,15
2016-09-05T06:12:02.571Z,15
2016-09-05T06:13:02.576Z,15
2016-09-05T06:14:02.602Z,15
2016-09-05T06:15:02.618Z,15
2016-09-05T06:16:02.653Z,15
2016-09-05T06:17:02.652Z,20
2016-09-05T06:18:02.684Z,20
2016-09-05T06:19:02.714Z,20
2016-09-05T06:20:02.719Z,25
2016-09-05T06:21:02.738Z,25
2016-09-05T06:22:02.771Z,25
2016-09-05T06:23:02.786Z,25
2016-09-05T06:24:02.814Z,20
2016-09-05T06:25:02.818Z,20
2016-09-05T06:26:02.851Z,20
2016-09-05T06:27:02.864Z,25
2016-09-05T06:28:02.885Z,25
2016-09-05T06:29:02.910Z,25
2016-09-05T06:30:02.925Z,25
2016-09-05T06:31:02.947Z,20
2016-09-05T06:32:02.985Z,20
2016-09-05T06:33:02.990Z,20
2016-09-05T06:34:03.013Z,20
2016-09-05T06:35:03.029Z,20
2016-09-05T06:36:03.048Z,20
2016-09-05T06:37:03.069Z,20
2016-09-05T06:38:03.094Z,25
2016-09-05T06:39:03.107Z,25
2016-09-05T06:40:03.138Z,25
2016-09-05T06:41:03.149Z,25
2016-09-05T06:42:03.168Z,25
2016-09-05T06:43:03.193Z,20
2016-09-05T06:44:03.208Z,25
2016-09-05T06:45:03.237Z,25
2016-09-05T06:46:03.256Z,25
2016-09-05T06:47:03.264Z,25
2016-09-05T06:48:03.295Z,25
2016-09-05T06:49:03.323Z,30
2016-09-05T06:50:03.339Z,30
2016-09-05T06:51:03.343Z,30
2016-09-05T06:52:03.377Z,30
2016-09-05T06:53:03.386Z,30
2016-09-05T06:54:03.423Z,30
2016-09-05T06:55:03.438Z,35
2016-09-05T06:56:03.462Z,40
2016-09-05T06:57:03.471Z,45
2016-09-05T06:58:03.498Z,45
2016-09-05T06:59:03.521Z,45
2016-09-05T07:00:03.544Z,40
2016-09-05T07:01:03.553Z,35
2016-09-05T07:02:03.584Z,35
2016-09-05T07:03:03.595Z,40
2016-09-05T07:04:03.630Z,40
2016-09-05T07:05:03.631Z,35
2016-09-05T07:06:03.661Z,40
2016-09-05T07:07:03.706Z,40
2016-09-05T07:08:03.695Z,40
2016-09-05T07:09:03.733Z,40
2016-09-05T07:10:03.749Z,40
2016-09-05T07:11:03.756Z,40
2016-09-05T07:12:03.783Z,40
2016-09-05T07:13:03.799Z,35
2016-09-05T07:14:03.828Z,40
2016-09-05T07:15:03.839Z,40
2016-09-05T07:16:03.867Z,40
2016-09-05T07:17:03.886Z,45
2016-09-05T07:18:03.920Z,50
2016-09-05T07:19:03.925Z,60
2016-09-05T07:20:03.955Z,65
2016-09-05T07:21:03.975Z,65
2016-09-05T07:22:03.991Z,55
2016-09-05T07:23:04.009Z,55
2016-09-05T07:24:04.034Z,55
2016-09-05T07:25:04.049Z,55
2016-09-05T07:26:04.080Z,50
2016-09-05T07:27:04.092Z,50
2016-09-05T07:28:04.119Z,55
2016-09-05T07:29:04.134Z,55
2016-09-05T07:30:04.159Z,50
2016-09-05T07:31:04.174Z,50
2016-09-05T07:32:04.190Z,45
2016-09-05T07:33:04.241Z,45
2016-09-05T07:34:04.237Z,45
2016-09-05T07:35:04.253Z,45
2016-09-05T07:36:04.287Z,50
2016-09-05T07:37:04.300Z,45
2016-09-05T07:38:04.327Z,45
2016-09-05T07:39:04.342Z,45
2016-09-05T07:40:04.371Z,45
2016-09-05T07:41:04.384Z,40
2016-09-05T07:42:04.407Z,40
2016-09-05T07:43:04.417Z,45
2016-09-05T07:44:04.447Z,55
2016-09-05T07:45:04.470Z,50
2016-09-05T07:46:04.491Z,45
2016-09-05T07:47:04.509Z,45
2016-09-05T07:48:04.525Z,45
2016-09-05T07:49:04.544Z,40
2016-09-05T07:50:04.579Z,40
2016-09-05T07:51:04.602Z,50
2016-09-05T07:52:04.628Z,60
2016-09-05T07:53:04.634Z,60
2016-09-05T07:54:04.648Z,60
2016-09-05T07:55:04.689Z,55
2016-09-05T07:56:04.689Z,55
2016-09-05T07:57:04.726Z,55
2016-09-05T07:58:04.732Z,50
2016-09-05T07:59:04.759Z,45
2016-09-05T08:00:04.788Z,45
2016-09-05T08:01:04.804Z,45
2016-09-05T08:02:04.828Z,55
2016-09-05T08:03:04.845Z,60
2016-09-05T08:04:04.857Z,60
2016-09-05T08:05:04.883Z,60
2016-09-05T08:06:04.927Z,55
2016-09-05T08:07:04.925Z,60
2016-09-05T08:08:04.942Z,60
2016-09-05T08:09:04.975Z,60
2016-09-05T08:10:04.983Z,65
2016-09-05T08:11:05.011Z,70
2016-09-05T08:12:05.022Z,75
2016-09-05T08:13:05.055Z,85
2016-09-05T08:14:05.066Z,90
2016-09-05T08:15:05.081Z,90
2016-09-05T08:16:05.115Z,95
2016-09-05T08:17:05.127Z,90
2016-09-05T08:18:05.152Z,85
2016-09-05T08:19:05.171Z,85
2016-09-05T08:20:05.199Z,85
2016-09-05T08:21:05.224Z,85
2016-09-05T08:22:05.249Z,70
2016-09-05T08:23:05.252Z,70
2016-09-05T08:24:05.281Z,75
2016-09-05T08:25:05.306Z,80
2016-09-05T08:26:05.317Z,90
2016-09-05T08:27:05.363Z,90
2016-09-05T08:28:05.352Z,85
2016-09-05T08:29:05.381Z,85
2016-09-05T08:30:05.412Z,85
2016-09-05T08:31:05.426Z,85
2016-09-05T08:32:05.458Z,90
2016-09-05T08:33:05.455Z,95
2016-09-05T08:34:05.490Z,100
2016-09-05T08:35:05.509Z,105
2016-09-05T08:36:05.538Z,110
2016-09-05T08:37:05.556Z,110
2016-09-05T08:38:05.583Z,115
2016-09-05T08:39:05.603Z,115
2016-09-05T08:40:05.615Z,110
2016-09-05T08:41:05.649Z,115
2016-09-05T08:42:05.662Z,120
2016-09-05T08:43:05.682Z,130
2016-09-05T08:44:05.694Z,150
2016-09-05T08:45:05.730Z,170
2016-09-05T08:46:05.749Z,180
2016-09-05T08:47:05.778Z,180
2016-09-05T08:48:05.777Z,200
2016-09-05T08:49:05.814Z,145
2016-09-05T08:50:05.843Z,125
2016-09-05T08:51:05.855Z,105
2016-09-05T08:52:05.878Z,110
2016-09-05T08:53:05.899Z,120
2016-09-05T08:54:05.930Z,125
2016-09-05T08:55:05.948Z,140
2016-09-05T08:56:05.955Z,150
2016-09-05T08:57:05.977Z,165
2016-09-05T08:58:06.000Z,170
2016-09-05T08:59:06.021Z,170
2016-09-05T09:00:06.038Z,175
2016-09-05T09:01:06.071Z,180
2016-09-05T09:02:06.081Z,180
2016-09-05T09:03:06.109Z,185
2016-09-05T09:04:06.139Z,185
2016-09-05T09:05:06.148Z,185
2016-09-05T09:06:06.183Z,190
2016-09-05T09:07:06.198Z,195
2016-09-05T09:08:06.221Z,200
2016-09-05T09:09:06.245Z,205
2016-09-05T09:10:06.272Z,210
2016-09-05T09:11:06.281Z,240
2016-09-05T09:12:06.311Z,230
2016-09-05T09:13:06.324Z,215
2016-09-05T09:14:06.342Z,210
2016-09-05T09:15:06.383Z,215
2016-09-05T09:16:06.385Z,230
2016-09-05T09:17:06.418Z,225
2016-09-05T09:18:06.456Z,225
2016-09-05T09:19:06.456Z,205
2016-09-05T09:20:06.495Z,200
2016-09-05T09:21:06.503Z,195
2016-09-05T09:22:06.530Z,195
2016-09-05T09:23:06.551Z,195
2016-09-05T09:24:06.581Z,185
2016-09-05T09:25:06.588Z,180
2016-09-05T09:26:06.628Z,180
2016-09-05T09:27:06.639Z,170
2016-09-05T09:28:06.669Z,170
2016-09-05T09:29:06.690Z,180
2016-09-05T09:30:06.712Z,185
2016-09-05T09:31:06.742Z,190
2016-09-05T09:32:06.752Z,190
2016-09-05T09:33:06.781Z,185
2016-09-05T09:34:06.806Z,180
2016-09-05T09:35:06.829Z,175
2016-09-05T09:36:06.844Z,160
2016-09-05T09:37:06.873Z,150
2016-09-05T09:38:06.875Z,140
2016-09-05T09:39:06.923Z,125
2016-09-05T09:40:06.937Z,115
2016-09-05T09:41:06.965Z,105
2016-09-05T09:42:07.002Z,115
2016-09-05T09:43:07.015Z,130
2016-09-05T09:44:07.028Z,135
2016-09-05T09:45:07.058Z,155
2016-09-05T09:46:07.074Z,185
2016-09-05T09:47:07.104Z,200
2016-09-05T09:48:07.135Z,215
2016-09-05T09:49:07.130Z,210
2016-09-05T09:50:07.175Z,205
2016-09-05T09:51:07.194Z,185
2016-09-05T09:52:07.201Z,180
2016-09-05T09:53:07.233Z,190
2016-09-05T09:54:07.255Z,195
2016-09-05T09:55:07.264Z,210
2016-09-05T09:56:07.300Z,200
2016-09-05T09:57:07.325Z,195
2016-09-05T09:58:07.351Z,210
2016-09-05T09:59:07.369Z,210
2016-09-05T10:00:07.382Z,205
2016-09-05T10:01:07.415Z,195
2016-09-05T10:02:07.425Z,185
2016-09-05T10:03:07.454Z,190
2016-09-05T10:04:07.490Z,200
2016-09-05T10:05:07.515Z,205
2016-09-05T10:06:07.518Z,210
2016-09-05T10:07:07.551Z,210
2016-09-05T10:08:07.576Z,205
2016-09-05T10:09:07.580Z,210
2016-09-05T10:10:07.647Z,205
2016-09-05T10:11:07.648Z,205
2016-09-05T10:12:07.670Z,200
2016-09-05T10:13:07.688Z,195
2016-09-05T10:14:07.707Z,185
2016-09-05T10:15:07.734Z,185
2016-09-05T10:16:07.762Z,185
2016-09-05T10:17:07.771Z,180
2016-09-05T10:18:07.792Z,180
2016-09-05T10:19:07.826Z,175
2016-09-05T10:20:07.845Z,170
2016-09-05T10:21:07.875Z,170
2016-09-05T10:22:07.881Z,165
2016-09-05T10:23:07.920Z,155
2016-09-05T10:24:07.928Z,145
2016-09-05T10:25:07.966Z,140
2016-09-05T10:26:07.977Z,135
2016-09-05T10:27:08.007Z,130
2016-09-05T10:28:08.037Z,120
2016-09-05T10:29:08.049Z,120
2016-09-05T10:30:08.087Z,120
2016-09-05T10:31:08.088Z,125
2016-09-05T10:32:08.119Z,130
2016-09-05T10:33:08.146Z,135
2016-09-05T10:34:08.155Z,130
2016-09-05T10:35:08.195Z,125
2016-09-05T10:36:08.220Z,120
2016-09-05T10:37:08.235Z,110
2016-09-05T10:38:08.286Z,100
2016-09-05T10:39:08.279Z,95
2016-09-05T10:40:08.292Z,85
2016-09-05T10:41:08.318Z,90
2016-09-05T10:42:08.363Z,85
2016-09-05T10:43:08.367Z,85
2016-09-05T10:44:08.394Z,90
2016-09-05T10:45:08.408Z,90
2016-09-05T10:46:08.443Z,90
2016-09-05T10:47:08.466Z,90
2016-09-05T10:48:08.495Z,85
2016-09-05T10:49:08.532Z,80
2016-09-05T10:50:08.520Z,75
2016-09-05T10:51:08.551Z,75
2016-09-05T10:52:08.575Z,80
2016-09-05T10:53:08.602Z,70
2016-09-05T10:54:08.616Z,65
2016-09-05T10:55:08.643Z,65
2016-09-05T10:56:08.659Z,65
2016-09-05T10:57:08.678Z,70
2016-09-05T10:58:08.710Z,75
2016-09-05T10:59:08.760Z,80
2016-09-05T11:00:08.776Z,80
2016-09-05T11:01:08.766Z,85
2016-09-05T11:02:08.802Z,90
2016-09-05T11:03:08.821Z,100
2016-09-05T11:04:08.845Z,100
2016-09-05T11:05:08.858Z,95
2016-09-05T11:06:08.877Z,95
2016-09-05T11:07:08.907Z,95
2016-09-05T11:08:08.935Z,95
2016-09-05T11:09:08.951Z,95
2016-09-05T11:10:08.970Z,95
2016-09-05T11:11:08.997Z,95
2016-09-05T11:12:09.034Z,95
2016-09-05T11:13:09.044Z,90
2016-09-05T11:14:09.074Z,90
2016-09-05T11:15:09.087Z,90
2016-09-05T11:16:09.103Z,95
2016-09-05T11:17:09.133Z,100
2016-09-05T11:18:09.163Z,105
2016-09-05T11:19:09.190Z,115
2016-09-05T11:20:09.197Z,120
2016-09-05T11:21:09.220Z,120
2016-09-05T11:22:09.243Z,120
2016-09-05T11:23:09.267Z,115
2016-09-05T11:24:09.285Z,110
2016-09-05T11:25:09.305Z,100
2016-09-05T11:26:09.340Z,100
2016-09-05T11:27:09.350Z,100
2016-09-05T11:28:09.375Z,100
2016-09-05T11:29:09.407Z,100
2016-09-05T11:30:09.425Z,105
2016-09-05T11:31:09.442Z,110
2016-09-05T11:32:09.460Z,110
2016-09-05T11:33:09.493Z,110
2016-09-05T11:34:09.511Z,115
2016-09-05T11:35:09.538Z,115
2016-09-05T11:36:09.547Z,120
2016-09-05T11:37:09.588Z,120
2016-09-05T11:38:09.602Z,120
2016-09-05T11:39:09.634Z,125
2016-09-05T11:40:09.655Z,125
2016-09-05T11:41:09.670Z,125
2016-09-05T11:42:09.697Z,120
2016-09-05T11:43:09.709Z,110
2016-09-05T11:44:09.747Z,100
2016-09-05T11:45:09.748Z,95
2016-09-05T11:46:09.786Z,95
2016-09-05T11:47:09.798Z,90
2016-09-05T11:48:09.829Z,95
2016-09-05T11:49:09.837Z,105
2016-09-05T11:50:09.861Z,110
2016-09-05T11:51:09.887Z,120
2016-09-05T11:52:09.921Z,125
2016-09-05T11:53:09.926Z,125
2016-09-05T11:54:09.952Z,125
2016-09-05T11:55:09.987Z,125
2016-09-05T11:56:09.999Z,120
2016-09-05T11:57:10.018Z,120
2016-09-05T11:58:10.046Z,115
2016-09-05T11:59:10.070Z,115
2016-09-05T12:00:10.236Z,115
2016-09-05T12:01:10.109Z,115
2016-09-05T12:02:10.146Z,115
2016-09-05T12:03:10.166Z,120
2016-09-05T12:04:10.194Z,120
2016-09-05T12:05:10.200Z,125
2016-09-05T12:06:10.251Z,130
2016-09-05T12:07:10.261Z,130
2016-09-05T12:08:10.264Z,130
2016-09-05T12:09:10.301Z,130
2016-09-05T12:10:10.333Z,130
2016-09-05T12:11:10.340Z,135
2016-09-05T12:12:10.360Z,140
2016-09-05T12:13:10.391Z,140
2016-09-05T12:14:10.402Z,145
2016-09-05T12:15:10.433Z,160
2016-09-05T12:16:10.462Z,165
2016-09-05T12:17:10.480Z,165
2016-09-05T12:18:10.507Z,160
2016-09-05T12:19:10.523Z,155
2016-09-05T12:20:10.542Z,170
2016-09-05T12:21:10.566Z,195
2016-09-05T12:22:10.591Z,190
2016-09-05T12:23:10.618Z,190
2016-09-05T12:24:10.627Z,195
2016-09-05T12:25:10.661Z,200
2016-09-05T12:26:10.681Z,220
2016-09-05T12:27:10.707Z,220
2016-09-05T12:28:10.724Z,205
2016-09-05T12:29:10.746Z,195
2016-09-05T12:30:10.806Z,195
2016-09-05T12:31:10.797Z,215
2016-09-05T12:32:10.825Z,175
2016-09-05T12:33:10.830Z,175
2016-09-05T12:34:10.872Z,180
2016-09-05T12:35:10.879Z,175
2016-09-05T12:36:10.913Z,175
2016-09-05T12:37:10.918Z,175
2016-09-05T12:38:10.964Z,165
2016-09-05T12:39:10.974Z,155
2016-09-05T12:40:10.998Z,155
2016-09-05T12:41:11.025Z,160
2016-09-05T12:42:11.053Z,160
2016-09-05T12:43:11.074Z,160
2016-09-05T12:44:11.084Z,155
2016-09-05T12:45:11.110Z,155
2016-09-05T12:46:11.139Z,150
2016-09-05T12:47:11.158Z,145
2016-09-05T12:48:11.202Z,140
2016-09-05T12:49:11.206Z,135
2016-09-05T12:50:11.231Z,140
2016-09-05T12:51:11.244Z,140
2016-09-05T12:52:11.282Z,145
2016-09-05T12:53:11.301Z,145
2016-09-05T12:54:11.328Z,155
2016-09-05T12:55:11.344Z,165
2016-09-05T12:56:11.374Z,175
2016-09-05T12:57:11.381Z,175
2016-09-05T12:58:11.419Z,170
2016-09-05T12:59:11.436Z,165
2016-09-05T13:00:11.450Z,160
2016-09-05T13:01:11.497Z,135
2016-09-05T13:02:11.500Z,120
2016-09-05T13:03:11.524Z,115
2016-09-05T13:04:11.563Z,105
2016-09-05T13:05:11.574Z,105
2016-09-05T13:06:11.601Z,100
2016-09-05T13:07:11.613Z,95
2016-09-05T13:08:11.649Z,95
2016-09-05T13:09:11.657Z,90
2016-09-05T13:10:11.692Z,85
2016-09-05T13:11:11.720Z,85
2016-09-05T13:12:11.728Z,85
2016-09-05T13:13:11.751Z,90
2016-09-05T13:14:11.774Z,90
2016-09-05T13:15:11.806Z,95
2016-09-05T13:16:11.821Z,105
2016-09-05T13:17:11.844Z,115
2016-09-05T13:18:11.872Z,125
2016-09-05T13:19:11.896Z,135
2016-09-05T13:20:11.925Z,135
2016-09-05T13:21:11.927Z,145
2016-09-05T13:22:11.981Z,150
2016-09-05T13:23:11.979Z,155
2016-09-05T13:24:12.017Z,160
2016-09-05T13:25:12.029Z,165
2016-09-05T13:26:12.063Z,165
2016-09-05T13:27:12.077Z,170
2016-09-05T13:28:12.096Z,165
2016-09-05T13:29:12.139Z,165
2016-09-05T13:30:12.148Z,160
2016-09-05T13:31:12.175Z,165
2016-09-05T13:32:12.199Z,165
2016-09-05T13:33:12.206Z,170
2016-09-05T13:34:12.240Z,175
2016-09-05T13:35:12.260Z,180
2016-09-05T13:36:12.282Z,180
2016-09-05T13:37:12.302Z,185
2016-09-05T13:38:12.330Z,190
2016-09-05T13:39:12.347Z,195
2016-09-05T13:40:12.372Z,200
2016-09-05T13:41:12.397Z,265
2016-09-05T13:42:12.424Z,270
2016-09-05T13:43:12.475Z,285
2016-09-05T13:44:12.518Z,285
2016-09-05T13:45:12.529Z,295
2016-09-05T13:46:12.547Z,230
2016-09-05T13:47:12.536Z,225
2016-09-05T13:48:12.552Z,240
2016-09-05T13:49:12.610Z,295
2016-09-05T13:50:12.596Z,285
2016-09-05T13:51:12.669Z,310
2016-09-05T13:52:12.708Z,260
2016-09-05T13:53:12.670Z,265
2016-09-05T13:54:12.691Z,260
2016-09-05T13:55:12.737Z,290
2016-09-05T13:56:12.758Z,245
2016-09-05T13:57:12.762Z,240
2016-09-05T13:58:12.811Z,245
2016-09-05T13:59:12.824Z,290
2016-09-05T14:00:12.831Z,285
2016-09-05T14:01:12.858Z,220
2016-09-05T14:02:12.884Z,230
2016-09-05T14:03:12.912Z,220
2016-09-05T14:04:12.941Z,225
2016-09-05T14:05:12.970Z,230
2016-09-05T14:06:12.973Z,205
2016-09-05T14:07:13.019Z,200
2016-09-05T14:08:13.027Z,200
2016-09-05T14:09:13.054Z,185
2016-09-05T14:10:13.080Z,180
2016-09-05T14:11:13.098Z,180
2016-09-05T14:12:13.156Z,180
2016-09-05T14:13:13.140Z,175
2016-09-05T14:14:13.183Z,165
2016-09-05T14:15:13.200Z,165
2016-09-05T14:16:13.216Z,160
2016-09-05T14:17:13.252Z,155
2016-09-05T14:18:13.269Z,150